sensor_id;sensor_type;location;lat;lon;timestamp;P1;P2;P0
71794;PMS7003;59641;45.188;5.712;2024-03-07T00:00:00;6.75;6.75;5.50
71794;PMS7003;59641;45.188;5.712;2024-03-07T00:02:40;8.00;7.75;5.75
71794;PMS7003;59641;45.188;5.712;2024-03-07T00:05:06;7.25;7.25;6.25
71794;PMS7003;59641;45.188;5.712;2024-03-07T00:07:33;6.00;5.75;4.00
71794;PMS7003;59641;45.188;5.712;2024-03-07T00:09:59;6.25;6.00;5.00
71794;PMS7003;59641;45.188;5.712;2024-03-07T00:12:25;6.00;5.00;4.00
71794;PMS7003;59641;45.188;5.712;2024-03-07T00:14:52;7.00;7.00;5.00
71794;PMS7003;59641;45.188;5.712;2024-03-07T00:17:18;9.00;7.25;4.50
71794;PMS7003;59641;45.188;5.712;2024-03-07T00:19:44;6.50;6.00;5.00
71794;PMS7003;59641;45.188;5.712;2024-03-07T00:22:10;6.75;6.25;4.75
71794;PMS7003;59641;45.188;5.712;2024-03-07T00:24:35;9.00;7.75;5.00
71794;PMS7003;59641;45.188;5.712;2024-03-07T00:27:02;8.00;7.00;6.75
71794;PMS7003;59641;45.188;5.712;2024-03-07T00:29:28;9.25;8.00;6.25
71794;PMS7003;59641;45.188;5.712;2024-03-07T00:31:54;10.00;8.00;6.00
71794;PMS7003;59641;45.188;5.712;2024-03-07T00:34:19;8.00;8.00;6.75
71794;PMS7003;59641;45.188;5.712;2024-03-07T00:36:46;9.00;7.25;5.75
71794;PMS7003;59641;45.188;5.712;2024-03-07T00:39:14;10.00;8.25;7.00
71794;PMS7003;59641;45.188;5.712;2024-03-07T00:41:39;8.00;8.00;6.50
71794;PMS7003;59641;45.188;5.712;2024-03-07T00:44:06;9.00;8.00;6.00
71794;PMS7003;59641;45.188;5.712;2024-03-07T00:46:33;10.00;8.00;6.25
71794;PMS7003;59641;45.188;5.712;2024-03-07T00:48:59;8.00;7.50;6.75
71794;PMS7003;59641;45.188;5.712;2024-03-07T00:51:25;10.00;8.00;7.00
71794;PMS7003;59641;45.188;5.712;2024-03-07T00:53:50;7.50;7.50;5.75
71794;PMS7003;59641;45.188;5.712;2024-03-07T00:56:16;11.75;9.75;7.50
71794;PMS7003;59641;45.188;5.712;2024-03-07T00:58:42;10.50;9.25;7.50
71794;PMS7003;59641;45.188;5.712;2024-03-07T01:01:07;5.75;5.75;4.00
71794;PMS7003;59641;45.188;5.712;2024-03-07T01:03:33;8.25;8.25;6.25
71794;PMS7003;59641;45.188;5.712;2024-03-07T01:05:59;8.50;8.50;7.00
71794;PMS7003;59641;45.188;5.712;2024-03-07T01:08:24;9.25;7.25;6.00
71794;PMS7003;59641;45.188;5.712;2024-03-07T01:10:49;6.75;6.75;5.00
71794;PMS7003;59641;45.188;5.712;2024-03-07T01:13:15;10.75;8.25;6.00
71794;PMS7003;59641;45.188;5.712;2024-03-07T01:15:45;9.50;7.00;6.00
71794;PMS7003;59641;45.188;5.712;2024-03-07T01:18:10;7.25;7.25;6.00
71794;PMS7003;59641;45.188;5.712;2024-03-07T01:20:36;8.00;8.00;7.00
71794;PMS7003;59641;45.188;5.712;2024-03-07T01:23:01;7.00;6.75;5.25
71794;PMS7003;59641;45.188;5.712;2024-03-07T01:25:26;7.00;7.00;4.75
71794;PMS7003;59641;45.188;5.712;2024-03-07T01:27:52;5.75;4.50;3.00
71794;PMS7003;59641;45.188;5.712;2024-03-07T01:30:17;6.00;5.00;3.00
71794;PMS7003;59641;45.188;5.712;2024-03-07T01:32:43;8.00;5.25;5.00
71794;PMS7003;59641;45.188;5.712;2024-03-07T01:35:08;6.75;6.75;4.50
71794;PMS7003;59641;45.188;5.712;2024-03-07T01:37:34;5.75;5.75;4.00
71794;PMS7003;59641;45.188;5.712;2024-03-07T01:40:00;6.00;6.00;5.00
71794;PMS7003;59641;45.188;5.712;2024-03-07T01:42:30;6.00;6.00;5.00
71794;PMS7003;59641;45.188;5.712;2024-03-07T01:44:55;7.00;5.75;5.00
71794;PMS7003;59641;45.188;5.712;2024-03-07T01:47:21;7.50;6.50;5.00
71794;PMS7003;59641;45.188;5.712;2024-03-07T01:49:47;8.00;6.75;5.25
71794;PMS7003;59641;45.188;5.712;2024-03-07T01:52:13;6.50;6.50;5.00
71794;PMS7003;59641;45.188;5.712;2024-03-07T01:54:39;6.00;5.75;4.00
71794;PMS7003;59641;45.188;5.712;2024-03-07T01:57:04;8.00;7.00;5.75
71794;PMS7003;59641;45.188;5.712;2024-03-07T01:59:31;5.50;5.50;4.75
71794;PMS7003;59641;45.188;5.712;2024-03-07T02:01:57;6.25;6.25;4.50
71794;PMS7003;59641;45.188;5.712;2024-03-07T02:04:23;7.00;7.00;5.00
71794;PMS7003;59641;45.188;5.712;2024-03-07T02:06:49;8.00;8.00;4.50
71794;PMS7003;59641;45.188;5.712;2024-03-07T02:09:15;4.75;4.25;3.25
71794;PMS7003;59641;45.188;5.712;2024-03-07T02:11:40;7.50;7.50;4.75
71794;PMS7003;59641;45.188;5.712;2024-03-07T02:14:05;5.75;5.50;5.50
71794;PMS7003;59641;45.188;5.712;2024-03-07T02:16:31;6.00;6.00;5.00
71794;PMS7003;59641;45.188;5.712;2024-03-07T02:18:56;3.25;2.75;2.25
71794;PMS7003;59641;45.188;5.712;2024-03-07T02:21:24;4.00;4.00;4.00
71794;PMS7003;59641;45.188;5.712;2024-03-07T02:23:49;7.00;5.25;5.00
71794;PMS7003;59641;45.188;5.712;2024-03-07T02:26:14;5.50;5.00;3.00
71794;PMS7003;59641;45.188;5.712;2024-03-07T02:28:40;5.00;4.50;3.75
71794;PMS7003;59641;45.188;5.712;2024-03-07T02:31:05;4.75;4.75;3.75
71794;PMS7003;59641;45.188;5.712;2024-03-07T02:33:30;4.00;4.00;3.25
71794;PMS7003;59641;45.188;5.712;2024-03-07T02:35:57;7.25;4.00;2.75
71794;PMS7003;59641;45.188;5.712;2024-03-07T02:38:22;5.00;3.50;3.00
71794;PMS7003;59641;45.188;5.712;2024-03-07T02:40:48;7.00;5.50;5.00
71794;PMS7003;59641;45.188;5.712;2024-03-07T02:43:13;5.00;4.00;3.00
71794;PMS7003;59641;45.188;5.712;2024-03-07T02:45:38;4.50;4.50;4.00
71794;PMS7003;59641;45.188;5.712;2024-03-07T02:48:04;4.00;3.75;3.25
71794;PMS7003;59641;45.188;5.712;2024-03-07T02:50:34;5.80;5.00;4.00
71794;PMS7003;59641;45.188;5.712;2024-03-07T02:53:02;6.00;4.50;3.50
71794;PMS7003;59641;45.188;5.712;2024-03-07T02:55:32;9.50;7.25;4.00
71794;PMS7003;59641;45.188;5.712;2024-03-07T02:57:59;5.00;5.00;4.00
71794;PMS7003;59641;45.188;5.712;2024-03-07T03:00:27;5.00;3.75;3.00
71794;PMS7003;59641;45.188;5.712;2024-03-07T03:02:54;3.00;3.00;2.00
71794;PMS7003;59641;45.188;5.712;2024-03-07T03:05:21;3.00;3.00;2.00
71794;PMS7003;59641;45.188;5.712;2024-03-07T03:07:47;5.00;5.00;3.00
71794;PMS7003;59641;45.188;5.712;2024-03-07T03:10:22;6.25;4.50;4.00
71794;PMS7003;59641;45.188;5.712;2024-03-07T03:12:53;5.00;5.00;4.00
71794;PMS7003;59641;45.188;5.712;2024-03-07T03:15:23;6.00;5.75;5.00
71794;PMS7003;59641;45.188;5.712;2024-03-07T03:17:49;5.75;5.25;4.00
71794;PMS7003;59641;45.188;5.712;2024-03-07T03:20:15;6.25;6.25;5.00
71794;PMS7003;59641;45.188;5.712;2024-03-07T03:22:49;6.00;6.00;5.25
71794;PMS7003;59641;45.188;5.712;2024-03-07T03:25:15;6.75;6.75;4.00
71794;PMS7003;59641;45.188;5.712;2024-03-07T03:27:41;10.00;7.25;6.00
71794;PMS7003;59641;45.188;5.712;2024-03-07T03:30:06;8.25;6.00;5.00
71794;PMS7003;59641;45.188;5.712;2024-03-07T03:32:32;5.25;4.25;3.00
71794;PMS7003;59641;45.188;5.712;2024-03-07T03:34:57;6.25;6.00;5.00
71794;PMS7003;59641;45.188;5.712;2024-03-07T03:37:23;5.25;5.00;3.75
71794;PMS7003;59641;45.188;5.712;2024-03-07T03:39:49;4.25;4.25;3.75
71794;PMS7003;59641;45.188;5.712;2024-03-07T03:42:14;5.00;5.00;4.00
71794;PMS7003;59641;45.188;5.712;2024-03-07T03:44:40;7.00;6.50;4.75
71794;PMS7003;59641;45.188;5.712;2024-03-07T03:47:05;5.75;5.00;4.00
71794;PMS7003;59641;45.188;5.712;2024-03-07T03:49:31;6.00;4.50;3.50
71794;PMS7003;59641;45.188;5.712;2024-03-07T03:51:56;4.50;4.50;3.00
71794;PMS7003;59641;45.188;5.712;2024-03-07T03:54:22;7.75;5.25;3.00
71794;PMS7003;59641;45.188;5.712;2024-03-07T03:56:47;6.25;4.75;4.00
71794;PMS7003;59641;45.188;5.712;2024-03-07T03:59:13;4.50;4.50;3.00
71794;PMS7003;59641;45.188;5.712;2024-03-07T04:01:38;6.00;5.00;4.00
71794;PMS7003;59641;45.188;5.712;2024-03-07T04:04:04;5.75;5.75;5.00
71794;PMS7003;59641;45.188;5.712;2024-03-07T04:06:30;5.75;3.75;3.00
71794;PMS7003;59641;45.188;5.712;2024-03-07T04:08:55;4.75;4.75;4.00
71794;PMS7003;59641;45.188;5.712;2024-03-07T04:11:21;7.00;5.50;4.00
71794;PMS7003;59641;45.188;5.712;2024-03-07T04:13:46;7.25;6.00;4.75
71794;PMS7003;59641;45.188;5.712;2024-03-07T04:16:11;5.75;5.00;4.00
71794;PMS7003;59641;45.188;5.712;2024-03-07T04:18:38;5.00;5.00;4.50
71794;PMS7003;59641;45.188;5.712;2024-03-07T04:21:03;6.50;6.50;4.50
71794;PMS7003;59641;45.188;5.712;2024-03-07T04:23:28;5.75;5.75;4.00
71794;PMS7003;59641;45.188;5.712;2024-03-07T04:25:54;7.00;6.00;4.00
71794;PMS7003;59641;45.188;5.712;2024-03-07T04:28:21;5.50;4.00;4.00
71794;PMS7003;59641;45.188;5.712;2024-03-07T04:30:47;4.75;4.75;4.25
71794;PMS7003;59641;45.188;5.712;2024-03-07T04:33:14;5.75;5.50;4.00
71794;PMS7003;59641;45.188;5.712;2024-03-07T04:35:39;6.00;6.00;4.50
71794;PMS7003;59641;45.188;5.712;2024-03-07T04:38:05;5.00;5.00;4.00
71794;PMS7003;59641;45.188;5.712;2024-03-07T04:40:36;6.00;5.00;4.00
71794;PMS7003;59641;45.188;5.712;2024-03-07T04:43:02;6.00;5.75;5.00
71794;PMS7003;59641;45.188;5.712;2024-03-07T04:45:28;7.00;6.25;6.00
71794;PMS7003;59641;45.188;5.712;2024-03-07T04:47:53;7.75;5.75;4.75
71794;PMS7003;59641;45.188;5.712;2024-03-07T04:50:19;4.25;4.25;4.00
71794;PMS7003;59641;45.188;5.712;2024-03-07T04:52:44;5.00;5.00;5.00
71794;PMS7003;59641;45.188;5.712;2024-03-07T04:55:11;4.25;4.25;3.00
71794;PMS7003;59641;45.188;5.712;2024-03-07T04:57:36;5.25;5.00;4.00
71794;PMS7003;59641;45.188;5.712;2024-03-07T05:00:05;5.00;4.00;3.25
71794;PMS7003;59641;45.188;5.712;2024-03-07T05:02:32;6.00;6.00;5.00
71794;PMS7003;59641;45.188;5.712;2024-03-07T05:04:57;7.00;6.75;5.00
71794;PMS7003;59641;45.188;5.712;2024-03-07T05:07:22;5.75;4.25;4.00
71794;PMS7003;59641;45.188;5.712;2024-03-07T05:09:48;7.75;7.50;6.25
71794;PMS7003;59641;45.188;5.712;2024-03-07T05:12:13;10.00;9.00;6.00
71794;PMS7003;59641;45.188;5.712;2024-03-07T05:14:39;7.75;7.75;5.50
71794;PMS7003;59641;45.188;5.712;2024-03-07T05:17:04;7.75;7.00;5.75
71794;PMS7003;59641;45.188;5.712;2024-03-07T05:19:33;9.00;7.50;6.00
71794;PMS7003;59641;45.188;5.712;2024-03-07T05:22:00;9.50;9.00;7.00
71794;PMS7003;59641;45.188;5.712;2024-03-07T05:24:25;11.25;7.00;6.00
71794;PMS7003;59641;45.188;5.712;2024-03-07T05:26:51;7.00;7.00;5.00
71794;PMS7003;59641;45.188;5.712;2024-03-07T05:29:18;5.50;5.50;5.00
71794;PMS7003;59641;45.188;5.712;2024-03-07T05:31:43;7.00;7.00;6.50
71794;PMS7003;59641;45.188;5.712;2024-03-07T05:34:11;12.00;8.25;5.50
71794;PMS7003;59641;45.188;5.712;2024-03-07T05:36:38;8.33;7.00;6.00
71794;PMS7003;59641;45.188;5.712;2024-03-07T05:39:10;7.25;7.25;5.00
71794;PMS7003;59641;45.188;5.712;2024-03-07T05:41:36;7.50;7.00;5.75
71794;PMS7003;59641;45.188;5.712;2024-03-07T05:44:02;6.00;6.00;5.00
71794;PMS7003;59641;45.188;5.712;2024-03-07T05:46:29;13.25;10.75;7.50
71794;PMS7003;59641;45.188;5.712;2024-03-07T05:48:54;11.33;11.33;9.00
71794;PMS7003;59641;45.188;5.712;2024-03-07T05:51:23;13.00;11.33;8.33
71794;PMS7003;59641;45.188;5.712;2024-03-07T05:53:48;4.50;4.00;2.00
71794;PMS7003;59641;45.188;5.712;2024-03-07T05:56:14;13.00;9.33;8.00
71794;PMS7003;59641;45.188;5.712;2024-03-07T05:58:39;11.67;11.67;8.67
71794;PMS7003;59641;45.188;5.712;2024-03-07T06:01:05;12.33;12.33;9.00
71794;PMS7003;59641;45.188;5.712;2024-03-07T06:03:30;11.00;10.00;8.00
71794;PMS7003;59641;45.188;5.712;2024-03-07T06:05:55;12.67;12.67;10.33
71794;PMS7003;59641;45.188;5.712;2024-03-07T06:08:21;12.00;12.00;9.50
71794;PMS7003;59641;45.188;5.712;2024-03-07T06:10:46;14.00;14.00;10.33
71794;PMS7003;59641;45.188;5.712;2024-03-07T06:13:13;17.00;13.67;10.00
71794;PMS7003;59641;45.188;5.712;2024-03-07T06:15:42;13.75;13.75;9.00
71794;PMS7003;59641;45.188;5.712;2024-03-07T06:18:08;13.25;11.75;8.75
71794;PMS7003;59641;45.188;5.712;2024-03-07T06:20:35;8.00;8.00;6.00
71794;PMS7003;59641;45.188;5.712;2024-03-07T06:23:01;7.50;7.50;5.75
71794;PMS7003;59641;45.188;5.712;2024-03-07T06:25:33;6.50;6.50;4.75
71794;PMS7003;59641;45.188;5.712;2024-03-07T06:28:01;7.00;6.25;5.00
71794;PMS7003;59641;45.188;5.712;2024-03-07T06:30:35;8.50;7.00;5.00
71794;PMS7003;59641;45.188;5.712;2024-03-07T06:33:01;9.50;9.50;6.00
71794;PMS7003;59641;45.188;5.712;2024-03-07T06:35:27;4.00;4.00;2.00
71794;PMS7003;59641;45.188;5.712;2024-03-07T06:37:52;5.00;4.00;4.00
71794;PMS7003;59641;45.188;5.712;2024-03-07T06:40:18;8.00;6.25;6.00
71794;PMS7003;59641;45.188;5.712;2024-03-07T06:42:47;9.25;8.00;6.00
71794;PMS7003;59641;45.188;5.712;2024-03-07T06:45:12;10.67;10.00;7.00
71794;PMS7003;59641;45.188;5.712;2024-03-07T06:47:38;8.25;7.25;7.00
71794;PMS7003;59641;45.188;5.712;2024-03-07T06:50:03;6.25;6.25;5.50
71794;PMS7003;59641;45.188;5.712;2024-03-07T06:52:29;8.50;7.75;6.75
71794;PMS7003;59641;45.188;5.712;2024-03-07T06:54:54;10.50;9.75;7.00
71794;PMS7003;59641;45.188;5.712;2024-03-07T06:57:20;7.25;7.25;6.25
71794;PMS7003;59641;45.188;5.712;2024-03-07T06:59:46;12.00;9.75;7.75
71794;PMS7003;59641;45.188;5.712;2024-03-07T07:02:11;7.25;7.25;5.25
71794;PMS7003;59641;45.188;5.712;2024-03-07T07:04:37;13.25;10.50;7.75
71794;PMS7003;59641;45.188;5.712;2024-03-07T07:07:12;15.00;12.00;9.00
71794;PMS7003;59641;45.188;5.712;2024-03-07T07:09:38;12.33;8.00;7.00
71794;PMS7003;59641;45.188;5.712;2024-03-07T07:12:04;13.67;12.33;9.00
71794;PMS7003;59641;45.188;5.712;2024-03-07T07:14:30;10.33;9.00;7.00
71794;PMS7003;59641;45.188;5.712;2024-03-07T07:16:55;15.33;10.33;7.33
71794;PMS7003;59641;45.188;5.712;2024-03-07T07:19:21;6.67;6.67;5.00
71794;PMS7003;59641;45.188;5.712;2024-03-07T07:21:47;10.67;9.00;7.00
71794;PMS7003;59641;45.188;5.712;2024-03-07T07:24:14;13.67;10.33;7.33
71794;PMS7003;59641;45.188;5.712;2024-03-07T07:26:40;11.33;11.33;9.00
71794;PMS7003;59641;45.188;5.712;2024-03-07T07:29:05;13.00;9.33;8.00
71794;PMS7003;59641;45.188;5.712;2024-03-07T07:31:31;16.00;14.00;9.00
71794;PMS7003;59641;45.188;5.712;2024-03-07T07:33:57;10.33;10.33;8.00
71794;PMS7003;59641;45.188;5.712;2024-03-07T07:36:23;11.00;8.33;7.00
71794;PMS7003;59641;45.188;5.712;2024-03-07T07:38:48;9.25;8.00;7.00
71794;PMS7003;59641;45.188;5.712;2024-03-07T07:41:13;9.75;9.75;7.75
71794;PMS7003;59641;45.188;5.712;2024-03-07T07:43:40;8.33;8.33;6.67
71794;PMS7003;59641;45.188;5.712;2024-03-07T07:46:05;12.00;12.00;7.33
71794;PMS7003;59641;45.188;5.712;2024-03-07T07:48:31;10.67;9.33;8.00
71794;PMS7003;59641;45.188;5.712;2024-03-07T07:50:56;8.25;8.25;7.00
71794;PMS7003;59641;45.188;5.712;2024-03-07T07:53:21;17.67;15.00;10.67
71794;PMS7003;59641;45.188;5.712;2024-03-07T07:55:47;12.33;10.67;8.00
71794;PMS7003;59641;45.188;5.712;2024-03-07T07:58:13;14.00;10.33;8.00
71794;PMS7003;59641;45.188;5.712;2024-03-07T08:00:39;14.67;11.33;7.67
71794;PMS7003;59641;45.188;5.712;2024-03-07T08:03:05;13.33;12.67;8.67
71794;PMS7003;59641;45.188;5.712;2024-03-07T08:05:34;12.00;10.67;8.67
71794;PMS7003;59641;45.188;5.712;2024-03-07T08:08:01;12.67;12.67;9.67
71794;PMS7003;59641;45.188;5.712;2024-03-07T08:10:31;11.67;10.33;7.00
71794;PMS7003;59641;45.188;5.712;2024-03-07T08:12:58;12.67;11.67;8.67
71794;PMS7003;59641;45.188;5.712;2024-03-07T08:15:25;10.00;10.00;7.67
71794;PMS7003;59641;45.188;5.712;2024-03-07T08:17:53;9.00;8.00;6.00
71794;PMS7003;59641;45.188;5.712;2024-03-07T08:20:20;9.00;8.33;7.00
71794;PMS7003;59641;45.188;5.712;2024-03-07T08:22:47;10.67;9.00;7.00
71794;PMS7003;59641;45.188;5.712;2024-03-07T08:25:16;12.25;9.50;7.25
71794;PMS7003;59641;45.188;5.712;2024-03-07T08:27:44;15.33;12.00;9.67
71794;PMS7003;59641;45.188;5.712;2024-03-07T08:30:11;11.50;10.50;8.00
71794;PMS7003;59641;45.188;5.712;2024-03-07T08:32:38;10.50;9.25;6.75
71794;PMS7003;59641;45.188;5.712;2024-03-07T08:35:05;9.00;9.00;7.00
71794;PMS7003;59641;45.188;5.712;2024-03-07T08:37:41;13.00;9.50;6.75
71794;PMS7003;59641;45.188;5.712;2024-03-07T08:40:09;7.25;7.25;6.00
71794;PMS7003;59641;45.188;5.712;2024-03-07T08:42:36;8.00;8.00;7.50
71794;PMS7003;59641;45.188;5.712;2024-03-07T08:45:03;8.75;8.75;6.00
71794;PMS7003;59641;45.188;5.712;2024-03-07T08:47:30;7.75;7.50;6.00
71794;PMS7003;59641;45.188;5.712;2024-03-07T08:49:56;8.25;7.25;5.50
71794;PMS7003;59641;45.188;5.712;2024-03-07T08:52:21;9.00;8.25;6.00
71794;PMS7003;59641;45.188;5.712;2024-03-07T08:54:47;6.75;6.75;6.00
71794;PMS7003;59641;45.188;5.712;2024-03-07T08:57:13;6.00;6.00;4.50
71794;PMS7003;59641;45.188;5.712;2024-03-07T08:59:41;7.00;7.00;6.00
71794;PMS7003;59641;45.188;5.712;2024-03-07T09:02:07;5.25;4.75;4.00
71794;PMS7003;59641;45.188;5.712;2024-03-07T09:04:32;8.25;6.75;5.00
71794;PMS7003;59641;45.188;5.712;2024-03-07T09:06:58;6.25;6.00;5.50
71794;PMS7003;59641;45.188;5.712;2024-03-07T09:09:23;6.75;6.50;5.75
71794;PMS7003;59641;45.188;5.712;2024-03-07T09:11:49;6.50;6.50;4.75
71794;PMS7003;59641;45.188;5.712;2024-03-07T09:14:14;7.50;7.50;6.00
71794;PMS7003;59641;45.188;5.712;2024-03-07T09:16:39;5.00;4.00;3.00
71794;PMS7003;59641;45.188;5.712;2024-03-07T09:19:05;6.50;5.00;4.00
71794;PMS7003;59641;45.188;5.712;2024-03-07T09:21:31;5.00;5.00;3.50
71794;PMS7003;59641;45.188;5.712;2024-03-07T09:23:56;7.25;4.50;3.00
71794;PMS7003;59641;45.188;5.712;2024-03-07T09:26:21;5.25;5.25;3.25
71794;PMS7003;59641;45.188;5.712;2024-03-07T09:28:47;4.00;4.00;4.00
71794;PMS7003;59641;45.188;5.712;2024-03-07T09:31:15;5.00;3.00;2.75
71794;PMS7003;59641;45.188;5.712;2024-03-07T09:33:41;6.50;5.00;4.25
71794;PMS7003;59641;45.188;5.712;2024-03-07T09:36:06;3.00;3.00;2.00
71794;PMS7003;59641;45.188;5.712;2024-03-07T09:38:32;5.75;5.00;3.00
71794;PMS7003;59641;45.188;5.712;2024-03-07T09:40:57;5.00;4.25;4.00
71794;PMS7003;59641;45.188;5.712;2024-03-07T09:43:24;5.00;5.00;4.00
71794;PMS7003;59641;45.188;5.712;2024-03-07T09:45:53;6.00;4.50;4.00
71794;PMS7003;59641;45.188;5.712;2024-03-07T09:48:19;6.75;5.00;3.00
71794;PMS7003;59641;45.188;5.712;2024-03-07T09:50:50;5.50;5.50;4.00
71794;PMS7003;59641;45.188;5.712;2024-03-07T09:53:19;5.00;5.00;4.00
71794;PMS7003;59641;45.188;5.712;2024-03-07T09:55:45;5.00;5.00;3.25
71794;PMS7003;59641;45.188;5.712;2024-03-07T09:58:11;4.00;4.00;3.00
71794;PMS7003;59641;45.188;5.712;2024-03-07T10:00:39;4.50;4.00;3.50
71794;PMS7003;59641;45.188;5.712;2024-03-07T10:03:06;4.75;4.75;3.00
71794;PMS7003;59641;45.188;5.712;2024-03-07T10:05:33;6.00;5.00;4.00
71794;PMS7003;59641;45.188;5.712;2024-03-07T10:07:59;3.00;3.00;3.00
71794;PMS7003;59641;45.188;5.712;2024-03-07T10:10:25;7.50;7.00;4.00
71794;PMS7003;59641;45.188;5.712;2024-03-07T10:12:51;8.25;7.00;5.00
71794;PMS7003;59641;45.188;5.712;2024-03-07T10:15:22;5.75;3.25;3.25
71794;PMS7003;59641;45.188;5.712;2024-03-07T10:17:52;6.75;5.00;3.50
71794;PMS7003;59641;45.188;5.712;2024-03-07T10:20:18;3.00;2.00;2.00
71794;PMS7003;59641;45.188;5.712;2024-03-07T10:22:47;4.75;4.75;3.50
71794;PMS7003;59641;45.188;5.712;2024-03-07T10:25:16;5.25;4.75;4.00
71794;PMS7003;59641;45.188;5.712;2024-03-07T10:27:42;6.00;5.00;4.00
71794;PMS7003;59641;45.188;5.712;2024-03-07T10:30:09;6.00;4.50;3.00
71794;PMS7003;59641;45.188;5.712;2024-03-07T10:32:35;3.00;3.00;3.00
71794;PMS7003;59641;45.188;5.712;2024-03-07T10:35:01;4.50;4.50;4.00
71794;PMS7003;59641;45.188;5.712;2024-03-07T10:37:28;3.75;2.50;1.50
71794;PMS7003;59641;45.188;5.712;2024-03-07T10:39:54;7.00;3.00;3.00
71794;PMS7003;59641;45.188;5.712;2024-03-07T10:42:20;4.00;4.00;3.00
71794;PMS7003;59641;45.188;5.712;2024-03-07T10:44:49;3.00;2.50;2.00
71794;PMS7003;59641;45.188;5.712;2024-03-07T10:47:22;4.00;4.00;3.50
71794;PMS7003;59641;45.188;5.712;2024-03-07T10:52:39;7.00;5.00;3.00
71794;PMS7003;59641;45.188;5.712;2024-03-07T10:55:31;5.00;5.00;3.00
71794;PMS7003;59641;45.188;5.712;2024-03-07T10:58:02;5.00;4.50;3.00
71794;PMS7003;59641;45.188;5.712;2024-03-07T11:00:36;2.75;2.75;2.00
71794;PMS7003;59641;45.188;5.712;2024-03-07T11:03:04;2.75;2.75;2.00
71794;PMS7003;59641;45.188;5.712;2024-03-07T11:05:34;5.00;5.00;3.00
71794;PMS7003;59641;45.188;5.712;2024-03-07T11:07:59;3.25;3.00;3.00
71794;PMS7003;59641;45.188;5.712;2024-03-07T11:10:30;2.40;2.40;2.00
71794;PMS7003;59641;45.188;5.712;2024-03-07T11:12:55;2.00;2.00;2.00
71794;PMS7003;59641;45.188;5.712;2024-03-07T11:15:23;2.50;2.50;2.50
71794;PMS7003;59641;45.188;5.712;2024-03-07T11:17:52;3.00;3.00;2.00
71794;PMS7003;59641;45.188;5.712;2024-03-07T11:20:20;4.00;2.60;2.00
71794;PMS7003;59641;45.188;5.712;2024-03-07T11:22:46;3.80;3.20;2.40
71794;PMS7003;59641;45.188;5.712;2024-03-07T11:25:12;2.25;2.25;2.00
71794;PMS7003;59641;45.188;5.712;2024-03-07T11:27:38;4.00;4.00;2.50
71794;PMS7003;59641;45.188;5.712;2024-03-07T11:30:04;5.00;3.40;2.20
71794;PMS7003;59641;45.188;5.712;2024-03-07T11:32:34;3.40;3.40;2.60
71794;PMS7003;59641;45.188;5.712;2024-03-07T11:35:03;3.60;2.40;2.00
71794;PMS7003;59641;45.188;5.712;2024-03-07T11:37:39;4.60;4.40;2.60
71794;PMS7003;59641;45.188;5.712;2024-03-07T11:40:11;3.60;3.60;2.60
71794;PMS7003;59641;45.188;5.712;2024-03-07T11:42:46;5.00;5.00;3.60
71794;PMS7003;59641;45.188;5.712;2024-03-07T11:45:13;4.50;3.00;2.00
71794;PMS7003;59641;45.188;5.712;2024-03-07T11:47:52;5.20;3.60;2.60
71794;PMS7003;59641;45.188;5.712;2024-03-07T11:50:38;4.60;4.00;3.00
71794;PMS7003;59641;45.188;5.712;2024-03-07T11:53:05;4.40;4.00;3.00
71794;PMS7003;59641;45.188;5.712;2024-03-07T11:55:35;5.00;4.50;4.25
71794;PMS7003;59641;45.188;5.712;2024-03-07T11:58:13;4.00;4.00;3.00
71794;PMS7003;59641;45.188;5.712;2024-03-07T12:00:44;2.80;2.60;2.60
71794;PMS7003;59641;45.188;5.712;2024-03-07T12:03:11;4.80;4.80;4.20
71794;PMS7003;59641;45.188;5.712;2024-03-07T12:05:42;6.00;4.00;3.50
71794;PMS7003;59641;45.188;5.712;2024-03-07T12:08:08;7.75;5.00;4.50
71794;PMS7003;59641;45.188;5.712;2024-03-07T12:10:35;5.60;5.60;3.80
71794;PMS7003;59641;45.188;5.712;2024-03-07T12:13:05;4.75;4.75;3.75
71794;PMS7003;59641;45.188;5.712;2024-03-07T12:15:31;5.50;5.50;4.00
71794;PMS7003;59641;45.188;5.712;2024-03-07T12:17:58;5.50;5.50;4.25
71794;PMS7003;59641;45.188;5.712;2024-03-07T12:20:27;2.20;2.20;2.00
71794;PMS7003;59641;45.188;5.712;2024-03-07T12:22:59;5.40;4.80;3.60
71794;PMS7003;59641;45.188;5.712;2024-03-07T12:25:31;4.25;4.00;3.00
71794;PMS7003;59641;45.188;5.712;2024-03-07T12:28:11;3.25;3.25;2.25
71794;PMS7003;59641;45.188;5.712;2024-03-07T12:33:17;6.50;5.00;3.00
71794;PMS7003;59641;45.188;5.712;2024-03-07T12:35:44;5.00;5.00;3.50
71794;PMS7003;59641;45.188;5.712;2024-03-07T12:38:11;6.00;3.75;3.25
71794;PMS7003;59641;45.188;5.712;2024-03-07T12:40:41;3.60;2.80;1.80
71794;PMS7003;59641;45.188;5.712;2024-03-07T12:43:14;2.00;2.00;1.25
71794;PMS7003;59641;45.188;5.712;2024-03-07T12:45:50;3.20;3.00;2.00
71794;PMS7003;59641;45.188;5.712;2024-03-07T12:48:17;4.20;3.20;2.80
71794;PMS7003;59641;45.188;5.712;2024-03-07T12:50:45;2.75;2.00;2.00
71794;PMS7003;59641;45.188;5.712;2024-03-07T12:53:10;3.40;3.00;1.80
71794;PMS7003;59641;45.188;5.712;2024-03-07T12:55:40;3.00;3.00;2.00
71794;PMS7003;59641;45.188;5.712;2024-03-07T12:58:09;3.80;3.80;2.80
71794;PMS7003;59641;45.188;5.712;2024-03-07T13:00:41;2.60;2.60;1.80
71794;PMS7003;59641;45.188;5.712;2024-03-07T13:03:07;2.20;2.20;0.60
71794;PMS7003;59641;45.188;5.712;2024-03-07T13:05:34;2.25;1.50;1.50
71794;PMS7003;59641;45.188;5.712;2024-03-07T13:08:05;1.40;1.40;0.60
71794;PMS7003;59641;45.188;5.712;2024-03-07T13:10:36;1.40;1.40;0.60
71794;PMS7003;59641;45.188;5.712;2024-03-07T13:13:05;0.80;0.80;0.60
71794;PMS7003;59641;45.188;5.712;2024-03-07T13:15:30;0.50;0.50;0.50
71794;PMS7003;59641;45.188;5.712;2024-03-07T13:17:56;0.50;0.50;0.00
71794;PMS7003;59641;45.188;5.712;2024-03-07T13:20:21;1.50;0.75;0.50
71794;PMS7003;59641;45.188;5.712;2024-03-07T13:22:51;1.20;0.60;0.60
71794;PMS7003;59641;45.188;5.712;2024-03-07T13:25:22;0.80;0.80;0.40
71794;PMS7003;59641;45.188;5.712;2024-03-07T13:27:56;0.60;0.60;0.20
71794;PMS7003;59641;45.188;5.712;2024-03-07T13:30:24;0.60;0.60;0.60
71794;PMS7003;59641;45.188;5.712;2024-03-07T13:32:59;1.00;0.60;0.60
71794;PMS7003;59641;45.188;5.712;2024-03-07T13:35:25;0.40;0.40;0.40
71794;PMS7003;59641;45.188;5.712;2024-03-07T13:37:51;0.60;0.60;0.60
71794;PMS7003;59641;45.188;5.712;2024-03-07T13:40:24;0.00;0.00;0.00
71794;PMS7003;59641;45.188;5.712;2024-03-07T13:42:52;4.40;1.80;0.80
71794;PMS7003;59641;45.188;5.712;2024-03-07T13:45:23;0.40;0.40;0.40
71794;PMS7003;59641;45.188;5.712;2024-03-07T13:47:52;0.40;0.40;0.40
71794;PMS7003;59641;45.188;5.712;2024-03-07T13:50:19;1.20;1.20;0.80
71794;PMS7003;59641;45.188;5.712;2024-03-07T13:52:49;1.80;0.80;0.80
71794;PMS7003;59641;45.188;5.712;2024-03-07T13:55:40;2.25;1.50;0.50
71794;PMS7003;59641;45.188;5.712;2024-03-07T14:09:26;0.00;0.00;0.00
71794;PMS7003;59641;45.188;5.712;2024-03-07T14:12:15;1.00;1.00;0.00
71794;PMS7003;59641;45.188;5.712;2024-03-07T14:31:39;1.50;1.50;1.50
71794;PMS7003;59641;45.188;5.712;2024-03-07T14:34:11;1.40;1.00;0.80
71794;PMS7003;59641;45.188;5.712;2024-03-07T14:36:47;0.40;0.40;0.40
71794;PMS7003;59641;45.188;5.712;2024-03-07T14:39:18;1.60;1.60;0.60
71794;PMS7003;59641;45.188;5.712;2024-03-07T14:42:01;0.50;0.50;0.50
71794;PMS7003;59641;45.188;5.712;2024-03-07T14:44:35;1.00;0.80;0.40
71794;PMS7003;59641;45.188;5.712;2024-03-07T14:47:03;1.00;1.00;0.80
71794;PMS7003;59641;45.188;5.712;2024-03-07T14:49:31;1.60;1.60;0.80
71794;PMS7003;59641;45.188;5.712;2024-03-07T14:51:57;1.00;1.00;0.60